createdAt,value
2019-02-28T00:02:44.899Z,5.87
2019-02-28T00:05:52.373Z,4.90
2019-02-28T00:08:18.234Z,5.87
2019-02-28T00:10:44.073Z,4.33
2019-02-28T00:13:09.904Z,5.00
2019-02-28T00:15:35.728Z,4.77
2019-02-28T00:18:03.597Z,5.90
2019-02-28T00:20:31.952Z,4.53
2019-02-28T00:22:57.387Z,6.83
2019-02-28T00:25:23.211Z,6.33
2019-02-28T00:28:09.045Z,7.13
2019-02-28T00:30:37.385Z,6.70
2019-02-28T00:33:02.722Z,5.93
2019-02-28T00:35:28.539Z,6.67
2019-02-28T00:37:56.610Z,7.20
2019-02-28T00:40:22.095Z,6.73
2019-02-28T00:43:07.935Z,5.63
2019-02-28T00:45:36.568Z,8.00
2019-02-28T00:48:01.693Z,6.50
2019-02-28T00:50:28.326Z,7.90
2019-02-28T00:52:55.246Z,7.10
2019-02-28T00:55:41.116Z,5.43
2019-02-28T00:58:06.952Z,6.20
2019-02-28T01:00:32.783Z,6.00
2019-02-28T01:02:58.687Z,5.73
2019-02-28T01:05:24.578Z,4.83
2019-02-28T01:08:32.122Z,4.93
2019-02-28T01:11:18.003Z,4.83
2019-02-28T01:13:43.920Z,5.23
2019-02-28T01:16:29.759Z,5.70
2019-02-28T01:18:55.628Z,5.53
2019-02-28T01:21:23.888Z,4.90
2019-02-28T01:23:49.276Z,5.50
2019-02-28T01:26:15.158Z,4.60
2019-02-28T01:28:41.034Z,5.10
2019-02-28T01:31:06.969Z,4.83
2019-02-28T01:33:32.783Z,5.10
2019-02-28T01:36:18.582Z,6.70
2019-02-28T01:38:44.403Z,5.10
2019-02-28T01:41:11.189Z,5.73
2019-02-28T01:43:37.972Z,5.37
2019-02-28T01:46:03.798Z,4.50
2019-02-28T01:48:29.633Z,5.80
2019-02-28T01:50:55.456Z,5.30
2019-02-28T01:53:21.296Z,5.50
2019-02-28T01:55:47.111Z,4.53
2019-02-28T01:58:16.336Z,5.50
2019-02-28T02:00:40.675Z,5.73
2019-02-28T02:03:09.547Z,5.90
2019-02-28T02:05:34.265Z,6.27
2019-02-28T02:08:00.074Z,7.00
2019-02-28T02:10:25.902Z,6.80
2019-02-28T02:12:51.755Z,6.50
2019-02-28T02:18:11.139Z,5.90
2019-02-28T02:20:36.975Z,6.80
2019-02-28T02:23:02.814Z,6.40
2019-02-28T02:25:28.624Z,4.73
2019-02-28T02:27:54.467Z,6.20
2019-02-28T02:31:01.935Z,7.47
2019-02-28T02:33:27.781Z,5.93
2019-02-28T02:35:53.587Z,7.30
2019-02-28T02:38:19.396Z,5.80
2019-02-28T02:40:45.226Z,6.13
2019-02-28T02:43:11.074Z,7.70
2019-02-28T02:45:41.953Z,6.20
2019-02-28T02:48:05.552Z,6.80
2019-02-28T02:50:35.812Z,6.70
2019-02-28T02:53:04.946Z,8.00
2019-02-28T02:55:29.208Z,7.30
2019-02-28T02:57:55.514Z,7.10
2019-02-28T03:00:21.346Z,8.43
2019-02-28T03:03:07.814Z,6.87
2019-02-28T03:05:47.586Z,6.97
2019-02-28T03:08:13.404Z,7.30
2019-02-28T03:10:39.227Z,7.40
2019-02-28T03:13:25.030Z,6.50
2019-02-28T03:15:50.865Z,6.67
2019-02-28T03:18:20.502Z,6.60
2019-02-28T03:20:44.409Z,7.07
2019-02-28T03:23:10.240Z,6.93
2019-02-28T03:25:36.091Z,6.70
2019-02-28T03:28:01.924Z,8.17
2019-02-28T03:30:32.453Z,6.77
2019-02-28T03:32:55.491Z,6.70
2019-02-28T03:35:21.341Z,7.50
2019-02-28T03:37:47.220Z,6.17
2019-02-28T03:40:54.741Z,7.43
2019-02-28T03:43:20.568Z,7.00
2019-02-28T03:45:46.432Z,7.17
2019-02-28T03:48:12.260Z,8.53
2019-02-28T03:50:38.453Z,7.90
2019-02-28T03:53:04.216Z,7.27
2019-02-28T03:56:14.460Z,8.50
2019-02-28T03:58:42.903Z,6.37
2019-02-28T04:01:09.316Z,7.10
2019-02-28T04:03:35.127Z,6.53
2019-02-28T04:06:03.789Z,8.20
2019-02-28T04:08:30.427Z,13.03
2019-02-28T04:10:56.461Z,13.00
2019-02-28T04:13:22.297Z,10.93
2019-02-28T04:18:35.514Z,9.77
2019-02-28T04:21:01.343Z,9.07
2019-02-28T04:23:27.185Z,8.67
2019-02-28T04:25:56.809Z,9.43
2019-02-28T04:28:20.747Z,8.60
2019-02-28T04:30:46.585Z,9.03
2019-02-28T04:33:12.442Z,10.00
2019-02-28T04:35:38.339Z,9.10
2019-02-28T04:38:04.154Z,8.80
2019-02-28T04:40:29.995Z,8.07
2019-02-28T04:42:55.800Z,8.70
2019-02-28T04:45:23.338Z,10.90
2019-02-28T04:47:49.346Z,9.90
2019-02-28T04:50:15.190Z,9.57
2019-02-28T04:52:46.488Z,10.37
2019-02-28T04:55:50.398Z,10.57
2019-02-28T04:58:16.222Z,9.30
2019-02-28T05:00:42.058Z,8.00
2019-02-28T05:03:07.858Z,8.93
2019-02-28T05:05:33.714Z,7.80
2019-02-28T05:08:04.646Z,8.60
2019-02-28T05:10:27.287Z,8.13
2019-02-28T05:12:53.108Z,8.30
2019-02-28T05:15:19.053Z,9.17
2019-02-28T05:17:44.865Z,9.20
2019-02-28T05:20:12.017Z,8.83
2019-02-28T05:25:32.307Z,9.90
2019-02-28T05:27:58.137Z,8.27
2019-02-28T05:30:23.967Z,10.23
2019-02-28T05:32:49.782Z,9.40
2019-02-28T05:35:15.598Z,10.60
2019-02-28T05:37:46.451Z,9.17
2019-02-28T05:40:50.831Z,9.20
2019-02-28T05:43:16.666Z,8.67
2019-02-28T05:45:42.497Z,7.97
2019-02-28T05:48:08.347Z,8.50
2019-02-28T05:50:34.175Z,7.77
2019-02-28T05:53:00.006Z,7.80
2019-02-28T05:55:25.938Z,9.87
2019-02-28T05:57:51.785Z,9.03
2019-02-28T06:03:04.978Z,9.80
2019-02-28T06:05:30.889Z,11.03
2019-02-28T06:07:56.732Z,12.00
2019-02-28T06:10:24.622Z,10.40
2019-02-28T06:12:50.290Z,8.73
2019-02-28T06:15:16.109Z,10.50
2019-02-28T06:17:41.928Z,10.87
2019-02-28T06:20:51.377Z,10.03
2019-02-28T06:23:17.171Z,10.77
2019-02-28T06:25:42.985Z,9.50
2019-02-28T06:28:08.839Z,14.20
2019-02-28T06:30:34.653Z,11.37
2019-02-28T06:33:00.481Z,15.20
2019-02-28T06:35:26.317Z,26.50
2019-02-28T06:37:52.165Z,21.27
2019-02-28T06:40:17.988Z,21.67
2019-02-28T06:43:25.486Z,16.60
2019-02-28T06:45:51.315Z,14.67
2019-02-28T06:48:17.172Z,13.93
2019-02-28T06:50:44.725Z,13.50
2019-02-28T06:53:10.740Z,15.40
2019-02-28T06:58:10.056Z,13.47
2019-02-28T07:00:35.910Z,16.73
2019-02-28T07:03:03.365Z,16.57
2019-02-28T07:05:29.515Z,16.40
2019-02-28T07:07:55.341Z,15.53
2019-02-28T07:10:21.194Z,13.43
2019-02-28T07:12:47.022Z,16.57
2019-02-28T07:15:55.503Z,14.10
2019-02-28T07:18:22.268Z,13.03
2019-02-28T07:20:48.096Z,12.13
2019-02-28T07:23:13.944Z,14.00
2019-02-28T07:25:39.760Z,12.00
2019-02-28T07:28:05.623Z,9.77
2019-02-28T07:30:31.421Z,10.90
2019-02-28T07:32:57.232Z,10.40
2019-02-28T07:35:23.070Z,10.10
2019-02-28T07:37:53.175Z,11.57
2019-02-28T07:40:58.275Z,11.30
2019-02-28T07:43:24.108Z,12.63
2019-02-28T07:45:52.197Z,12.63
2019-02-28T07:48:17.694Z,14.80
2019-02-28T07:50:46.543Z,14.10
2019-02-28T07:53:11.262Z,13.40
2019-02-28T07:55:37.102Z,15.07
2019-02-28T07:58:03.023Z,16.00
2019-02-28T08:00:28.857Z,16.97
2019-02-28T08:02:54.719Z,15.93
2019-02-28T08:05:20.603Z,15.70
2019-02-28T08:07:50.913Z,17.20
2019-02-28T08:10:55.860Z,17.43
2019-02-28T08:13:21.677Z,15.70
2019-02-28T08:15:47.495Z,17.07
2019-02-28T08:18:15.853Z,17.63
2019-02-28T08:20:41.156Z,19.40
2019-02-28T08:23:06.992Z,17.63
2019-02-28T08:25:32.819Z,20.87
2019-02-28T08:27:59.814Z,17.77
2019-02-28T08:30:47.382Z,20.87
2019-02-28T08:33:16.358Z,22.23
2019-02-28T08:35:41.679Z,17.17
2019-02-28T08:38:07.565Z,15.70
2019-02-28T08:40:33.337Z,16.77
2019-02-28T08:42:59.174Z,15.47
2019-02-28T08:45:25.005Z,14.23
2019-02-28T08:47:55.233Z,12.87
2019-02-28T08:50:38.470Z,14.60
2019-02-28T08:53:50.712Z,12.73
2019-02-28T08:56:14.078Z,13.97
2019-02-28T08:58:42.721Z,15.67
2019-02-28T09:01:29.206Z,13.30
2019-02-28T09:06:27.803Z,14.80
2019-02-28T09:08:56.559Z,14.20
2019-02-28T09:11:41.273Z,12.90
2019-02-28T09:14:27.083Z,14.43
2019-02-28T09:19:58.379Z,14.57
2019-02-28T09:22:26.842Z,15.57
2019-02-28T09:24:52.102Z,13.70
2019-02-28T09:27:17.982Z,14.80
2019-02-28T09:29:43.856Z,13.50
2019-02-28T09:32:10.226Z,14.90
2019-02-28T09:34:37.534Z,17.23
2019-02-28T09:37:03.402Z,12.43
2019-02-28T09:39:29.403Z,15.60
2019-02-28T09:41:55.285Z,15.47
2019-02-28T09:44:21.097Z,16.47
2019-02-28T09:46:47.434Z,16.20
2019-02-28T09:49:34.608Z,15.77
2019-02-28T09:52:20.349Z,16.83
2019-02-28T09:54:46.212Z,16.07
2019-02-28T09:57:12.103Z,16.20
2019-02-28T09:59:38.680Z,17.70
2019-02-28T10:02:25.563Z,16.90
2019-02-28T10:05:11.830Z,17.17
2019-02-28T10:07:51.722Z,15.80
2019-02-28T10:10:30.739Z,17.93
2019-02-28T10:12:56.975Z,17.60
2019-02-28T10:15:44.261Z,18.30
2019-02-28T10:18:10.085Z,18.27
2019-02-28T10:21:17.569Z,18.10
2019-02-28T10:24:03.294Z,18.03
2019-02-28T10:26:29.126Z,18.57
2019-02-28T10:28:54.957Z,15.53
2019-02-28T10:31:22.831Z,19.90
2019-02-28T10:33:49.458Z,16.97
2019-02-28T10:36:16.257Z,18.90
2019-02-28T10:38:42.099Z,16.87
2019-02-28T10:41:07.944Z,18.30
2019-02-28T10:43:33.802Z,17.17
2019-02-28T10:45:59.653Z,19.93
2019-02-28T10:48:50.870Z,19.93
2019-02-28T10:51:14.318Z,19.97
2019-02-28T10:53:40.927Z,19.87
2019-02-28T10:56:06.763Z,18.90
2019-02-28T10:58:53.852Z,19.33
2019-02-28T11:04:08.217Z,18.80
2019-02-28T11:07:17.118Z,21.57
2019-02-28T11:09:43.133Z,20.03
2019-02-28T11:12:28.951Z,14.50
2019-02-28T11:15:14.796Z,20.17
2019-02-28T11:18:00.480Z,17.93
2019-02-28T11:20:27.132Z,18.00
2019-02-28T11:23:35.739Z,20.80
2019-02-28T11:26:01.584Z,20.83
2019-02-28T11:28:47.394Z,16.47
2019-02-28T11:31:33.115Z,20.90
2019-02-28T11:34:40.604Z,20.53
2019-02-28T11:37:48.120Z,19.33
2019-02-28T11:40:57.515Z,18.57
2019-02-28T11:43:23.353Z,18.00
2019-02-28T11:49:07.913Z,19.50
2019-02-28T11:51:33.765Z,17.20
2019-02-28T11:53:59.585Z,17.97
2019-02-28T11:56:28.654Z,18.43
2019-02-28T11:58:53.151Z,17.17
2019-02-28T12:01:18.971Z,20.90
2019-02-28T12:03:44.766Z,19.20
2019-02-28T12:06:10.631Z,17.83
2019-02-28T12:08:36.451Z,18.53
2019-02-28T12:11:43.910Z,18.63
2019-02-28T12:14:51.388Z,15.60
2019-02-28T12:19:50.650Z,19.63
2019-02-28T12:22:36.570Z,17.83
2019-02-28T12:25:44.059Z,21.23
2019-02-28T12:31:03.887Z,20.53
2019-02-28T12:33:29.727Z,20.00
2019-02-28T12:35:55.570Z,20.23
2019-02-28T12:38:41.373Z,22.53
2019-02-28T12:41:48.855Z,21.17
2019-02-28T12:44:15.473Z,18.93
2019-02-28T12:46:43.394Z,22.33
2019-02-28T12:49:10.192Z,20.97
2019-02-28T12:51:36.561Z,20.40
2019-02-28T12:54:03.775Z,19.50
2019-02-28T12:56:29.588Z,20.07
2019-02-28T12:58:55.427Z,19.77
2019-02-28T13:01:21.272Z,20.50
2019-02-28T13:03:47.069Z,18.73
2019-02-28T13:06:12.986Z,18.83
2019-02-28T13:08:41.740Z,20.77
2019-02-28T13:11:48.187Z,18.73
2019-02-28T13:14:14.032Z,18.03
2019-02-28T13:16:39.878Z,18.23
2019-02-28T13:19:25.694Z,16.77
2019-02-28T13:21:51.537Z,18.70
2019-02-28T13:24:17.463Z,16.37
2019-02-28T13:26:43.296Z,21.73
2019-02-28T13:29:10.081Z,17.77
2019-02-28T13:31:36.899Z,17.07
2019-02-28T13:34:25.196Z,14.43
2019-02-28T13:36:53.793Z,17.00
2019-02-28T13:42:05.628Z,17.60
2019-02-28T13:44:35.993Z,16.40
2019-02-28T13:46:59.305Z,16.17
2019-02-28T13:49:25.113Z,15.17
2019-02-28T13:51:50.929Z,16.27
2019-02-28T13:54:16.754Z,16.20
2019-02-28T13:56:42.574Z,15.07
2019-02-28T13:59:08.428Z,14.43
2019-02-28T14:01:55.484Z,15.80
2019-02-28T14:04:25.894Z,15.90
2019-02-28T14:06:52.466Z,18.40
2019-02-28T14:09:18.913Z,14.23
2019-02-28T14:11:45.914Z,14.73
2019-02-28T14:14:54.790Z,16.40
2019-02-28T14:17:20.600Z,13.67
2019-02-28T14:19:46.458Z,14.83
2019-02-28T14:22:12.366Z,14.73
2019-02-28T14:24:40.147Z,15.10
2019-02-28T14:27:05.989Z,15.53
2019-02-28T14:29:31.810Z,15.77
2019-02-28T14:31:57.623Z,14.57
2019-02-28T14:34:26.205Z,15.53
2019-02-28T14:36:51.197Z,14.47
2019-02-28T14:39:39.798Z,17.20
2019-02-28T14:42:31.528Z,17.27
2019-02-28T14:44:57.370Z,14.43
2019-02-28T14:47:24.805Z,13.03
2019-02-28T14:49:52.719Z,16.83
2019-02-28T14:52:18.718Z,16.97
2019-02-28T14:54:44.546Z,16.17
2019-02-28T14:57:10.406Z,17.10
2019-02-28T14:59:38.221Z,17.20
2019-02-28T15:02:04.147Z,16.43
2019-02-28T15:04:29.969Z,18.30
2019-02-28T15:07:38.509Z,14.50
2019-02-28T15:10:46.866Z,15.47
2019-02-28T15:13:33.493Z,17.93
2019-02-28T15:16:00.419Z,18.37
2019-02-28T15:18:26.255Z,17.20
2019-02-28T15:20:52.094Z,14.90
2019-02-28T15:23:17.929Z,17.40
2019-02-28T15:25:43.766Z,16.73
2019-02-28T15:28:10.629Z,13.70
2019-02-28T15:31:19.103Z,12.90
2019-02-28T15:33:44.947Z,13.33
2019-02-28T15:36:10.794Z,12.70
2019-02-28T15:38:36.635Z,11.80
2019-02-28T15:41:22.462Z,11.90
2019-02-28T15:43:50.378Z,13.90
2019-02-28T15:46:16.123Z,12.93
2019-02-28T15:49:02.150Z,13.23
2019-02-28T15:51:29.298Z,12.67
2019-02-28T15:53:55.991Z,13.33
2019-02-28T15:56:21.972Z,12.57
2019-02-28T15:58:47.836Z,13.57
2019-02-28T16:01:14.076Z,14.03
2019-02-28T16:03:41.437Z,14.10
2019-02-28T16:06:07.265Z,13.63
2019-02-28T16:08:33.120Z,13.67
2019-02-28T16:11:18.915Z,13.27
2019-02-28T16:13:44.801Z,15.30
2019-02-28T16:16:10.620Z,16.47
2019-02-28T16:18:36.637Z,19.57
2019-02-28T16:21:03.681Z,16.87
2019-02-28T16:23:31.064Z,16.37
2019-02-28T16:25:58.064Z,17.40
2019-02-28T16:28:23.949Z,17.60
2019-02-28T16:31:09.795Z,16.17
2019-02-28T16:33:35.633Z,17.33
2019-02-28T16:36:01.490Z,16.10
2019-02-28T16:38:27.353Z,15.50
2019-02-28T16:40:53.184Z,17.83
2019-02-28T16:43:20.845Z,15.23
2019-02-28T16:48:36.611Z,17.17
2019-02-28T16:51:02.009Z,18.47
2019-02-28T16:53:27.821Z,17.53
2019-02-28T16:55:53.670Z,18.00
2019-02-28T16:58:22.079Z,20.93
2019-02-28T17:00:47.370Z,18.83
2019-02-28T17:03:13.209Z,18.70
2019-02-28T17:05:39.068Z,19.53
2019-02-28T17:11:14.682Z,19.00
2019-02-28T17:16:47.260Z,19.17
2019-02-28T17:19:13.092Z,22.40
2019-02-28T17:21:38.923Z,19.90
2019-02-28T17:24:04.769Z,22.20
2019-02-28T17:27:12.254Z,21.53
2019-02-28T17:30:00.401Z,22.03
2019-02-28T17:35:13.176Z,25.50
2019-02-28T17:38:00.161Z,24.47
2019-02-28T17:40:27.134Z,23.07
2019-02-28T17:42:54.725Z,24.40
2019-02-28T17:46:02.218Z,24.67
2019-02-28T17:49:09.717Z,23.93
2019-02-28T17:52:17.271Z,20.80
2019-02-28T17:55:26.837Z,19.40
2019-02-28T17:58:34.172Z,17.70
2019-02-28T18:01:41.671Z,21.53
2019-02-28T18:04:47.252Z,20.17
2019-02-28T18:07:52.867Z,20.10
2019-02-28T18:10:59.249Z,20.93
2019-02-28T18:14:05.580Z,20.73
2019-02-28T18:17:11.152Z,20.57
2019-02-28T18:20:16.776Z,19.97
2019-02-28T18:23:24.861Z,19.40
2019-02-28T18:26:39.039Z,21.87
2019-02-28T18:29:41.125Z,21.70
2019-02-28T18:32:07.001Z,23.13
2019-02-28T18:34:56.085Z,20.40
2019-02-28T18:37:40.329Z,19.80
2019-02-28T18:40:47.809Z,21.97
2019-02-28T18:45:45.391Z,20.80
2019-02-28T18:48:11.425Z,22.07
2019-02-28T18:50:38.958Z,25.17
2019-02-28T18:53:04.791Z,28.33
2019-02-28T18:55:34.794Z,25.73
2019-02-28T18:57:58.409Z,25.33
2019-02-28T19:00:24.246Z,25.17
2019-02-28T19:03:10.061Z,27.57
2019-02-28T19:05:36.088Z,27.27
2019-02-28T19:08:01.956Z,30.87
2019-02-28T19:10:27.767Z,28.30
2019-02-28T19:12:53.603Z,25.70
2019-02-28T19:15:19.434Z,24.03
2019-02-28T19:17:45.295Z,23.43
2019-02-28T19:20:11.217Z,24.07
2019-02-28T19:22:37.048Z,26.93
2019-02-28T19:25:44.517Z,25.83
2019-02-28T19:28:10.377Z,22.50
2019-02-28T19:30:36.229Z,20.40
2019-02-28T19:33:43.713Z,21.90
2019-02-28T19:36:09.571Z,19.70
2019-02-28T19:38:35.509Z,23.17
2019-02-28T19:41:01.362Z,24.30
2019-02-28T19:43:27.202Z,24.97
2019-02-28T19:46:34.713Z,24.20
2019-02-28T19:49:20.414Z,20.87
2019-02-28T19:51:46.273Z,22.17
2019-02-28T19:54:12.111Z,21.17
2019-02-28T19:56:37.965Z,20.40
2019-02-28T19:59:03.797Z,19.40
2019-02-28T20:01:29.664Z,21.03
2019-02-28T20:03:55.552Z,20.63
2019-02-28T20:07:03.052Z,18.30
2019-02-28T20:09:28.912Z,18.10
2019-02-28T20:11:54.774Z,18.33
2019-02-28T20:14:20.614Z,18.60
2019-02-28T20:16:46.459Z,19.50
2019-02-28T20:19:12.325Z,19.23
2019-02-28T20:21:38.175Z,19.80
2019-02-28T20:24:45.672Z,19.27
2019-02-28T20:27:31.401Z,19.13
2019-02-28T20:29:57.286Z,20.47
2019-02-28T20:32:23.240Z,20.83
2019-02-28T20:35:30.773Z,19.97
2019-02-28T20:38:09.823Z,17.30
2019-02-28T20:40:49.049Z,17.33
2019-02-28T20:43:14.929Z,20.53
2019-02-28T20:45:40.772Z,20.67
2019-02-28T20:48:06.649Z,15.73
2019-02-28T20:50:52.947Z,16.27
2019-02-28T20:53:38.666Z,19.10
2019-02-28T20:56:04.644Z,18.97
2019-02-28T20:58:30.443Z,18.27
2019-02-28T21:00:56.448Z,17.03
2019-02-28T21:03:42.165Z,18.00
2019-02-28T21:06:08.007Z,19.57
2019-02-28T21:08:33.850Z,17.77
2019-02-28T21:10:59.734Z,19.37
2019-02-28T21:13:25.569Z,22.93
2019-02-28T21:15:51.408Z,20.47
2019-02-28T21:18:17.280Z,21.73
2019-02-28T21:20:43.118Z,24.40
2019-02-28T21:23:08.973Z,24.33
2019-02-28T21:25:34.797Z,22.60
2019-02-28T21:28:00.649Z,20.20
2019-02-28T21:31:08.128Z,24.80
2019-02-28T21:33:53.848Z,22.27
2019-02-28T21:36:39.787Z,26.60
2019-02-28T21:39:19.245Z,28.33
2019-02-28T21:41:58.309Z,26.20
2019-02-28T21:44:37.195Z,23.20
2019-02-28T21:47:44.682Z,25.10
2019-02-28T21:50:52.412Z,26.93
2019-02-28T21:53:18.248Z,20.40
2019-02-28T21:55:44.093Z,24.80
2019-02-28T21:58:09.906Z,23.97
2019-02-28T22:00:35.727Z,22.70
2019-02-28T22:03:01.574Z,23.27
2019-02-28T22:05:47.359Z,22.47
2019-02-28T22:08:13.205Z,22.33
2019-02-28T22:10:39.017Z,22.00
2019-02-28T22:13:04.833Z,20.00
2019-02-28T22:15:30.663Z,16.43
2019-02-28T22:17:56.503Z,18.60
2019-02-28T22:20:22.328Z,19.87
2019-02-28T22:22:48.181Z,19.00
2019-02-28T22:25:55.653Z,18.30
2019-02-28T22:28:21.468Z,17.00
2019-02-28T22:34:04.234Z,17.47
2019-02-28T22:36:49.942Z,16.67
2019-02-28T22:39:15.784Z,17.20
2019-02-28T22:41:41.634Z,16.30
2019-02-28T22:44:07.439Z,16.90
2019-02-28T22:46:33.270Z,17.27
2019-02-28T22:48:59.104Z,17.60
2019-02-28T22:51:24.926Z,17.17
2019-02-28T22:53:50.749Z,16.50
2019-02-28T22:56:16.555Z,18.67
2019-02-28T22:58:42.391Z,16.83
2019-02-28T23:01:49.884Z,16.47
2019-02-28T23:04:15.745Z,15.77
2019-02-28T23:06:41.596Z,14.20
2019-02-28T23:09:49.113Z,14.03
2019-02-28T23:12:34.777Z,15.10
2019-02-28T23:15:20.484Z,12.80
2019-02-28T23:17:46.303Z,12.63
2019-02-28T23:20:12.250Z,12.27
2019-02-28T23:22:38.055Z,11.37
2019-02-28T23:25:45.531Z,12.30
2019-02-28T23:28:53.009Z,11.37
2019-02-28T23:32:00.498Z,9.40
2019-02-28T23:34:46.287Z,10.50
2019-02-28T23:37:32.004Z,11.43
2019-02-28T23:39:57.855Z,9.40
2019-02-28T23:42:23.697Z,9.70
2019-02-28T23:44:49.511Z,10.23
2019-02-28T23:47:15.352Z,9.53
2019-02-28T23:49:41.178Z,9.13
2019-02-28T23:52:07.004Z,8.60
2019-02-28T23:54:52.830Z,9.50
2019-02-28T23:57:38.537Z,8.73
